sensor_id;sensor_type;location;lat;lon;timestamp;temperature;humidity
22145;DHT22;11238;48.730;11.566;2022-12-11T00:00:37;-0.10;99.90
22145;DHT22;11238;48.730;11.566;2022-12-11T00:03:04;-0.10;99.90
22145;DHT22;11238;48.730;11.566;2022-12-11T00:05:30;-0.10;99.90
22145;DHT22;11238;48.730;11.566;2022-12-11T00:07:56;-0.10;99.90
22145;DHT22;11238;48.730;11.566;2022-12-11T00:10:23;-0.10;99.90
22145;DHT22;11238;48.730;11.566;2022-12-11T00:12:49;-0.10;99.90
22145;DHT22;11238;48.730;11.566;2022-12-11T00:15:15;-0.10;99.90
22145;DHT22;11238;48.730;11.566;2022-12-11T00:17:41;-0.10;99.90
22145;DHT22;11238;48.730;11.566;2022-12-11T00:20:07;-0.10;99.90
22145;DHT22;11238;48.730;11.566;2022-12-11T00:22:34;-0.10;99.90
22145;DHT22;11238;48.730;11.566;2022-12-11T00:24:59;-0.10;99.90
22145;DHT22;11238;48.730;11.566;2022-12-11T00:27:25;-0.10;99.90
22145;DHT22;11238;48.730;11.566;2022-12-11T00:29:52;-0.10;99.90
22145;DHT22;11238;48.730;11.566;2022-12-11T00:32:18;-0.10;99.90
22145;DHT22;11238;48.730;11.566;2022-12-11T00:34:43;-0.10;99.90
22145;DHT22;11238;48.730;11.566;2022-12-11T00:37:09;-0.10;99.90
22145;DHT22;11238;48.730;11.566;2022-12-11T00:39:36;-0.10;99.90
22145;DHT22;11238;48.730;11.566;2022-12-11T00:42:02;0.00;99.90
22145;DHT22;11238;48.730;11.566;2022-12-11T00:44:28;-0.10;99.90
22145;DHT22;11238;48.730;11.566;2022-12-11T00:46:54;-0.10;99.90
22145;DHT22;11238;48.730;11.566;2022-12-11T00:49:20;-0.10;99.90
22145;DHT22;11238;48.730;11.566;2022-12-11T00:51:46;-0.10;99.90
22145;DHT22;11238;48.730;11.566;2022-12-11T00:54:12;0.00;99.90
22145;DHT22;11238;48.730;11.566;2022-12-11T00:56:37;-0.10;99.90
22145;DHT22;11238;48.730;11.566;2022-12-11T00:59:03;-0.10;99.90
22145;DHT22;11238;48.730;11.566;2022-12-11T01:01:29;-0.10;99.90
22145;DHT22;11238;48.730;11.566;2022-12-11T01:03:55;-0.10;99.90
22145;DHT22;11238;48.730;11.566;2022-12-11T01:06:24;-0.10;99.90
22145;DHT22;11238;48.730;11.566;2022-12-11T01:08:51;-0.10;99.90
22145;DHT22;11238;48.730;11.566;2022-12-11T01:11:37;-0.10;99.90
22145;DHT22;11238;48.730;11.566;2022-12-11T01:14:03;-0.10;99.90
22145;DHT22;11238;48.730;11.566;2022-12-11T01:16:29;-0.10;99.90
22145;DHT22;11238;48.730;11.566;2022-12-11T01:18:56;-0.10;99.90
22145;DHT22;11238;48.730;11.566;2022-12-11T01:21:22;-0.10;99.90
22145;DHT22;11238;48.730;11.566;2022-12-11T01:23:49;-0.10;99.90
22145;DHT22;11238;48.730;11.566;2022-12-11T01:26:15;-0.10;99.90
22145;DHT22;11238;48.730;11.566;2022-12-11T01:28:43;-0.10;99.90
22145;DHT22;11238;48.730;11.566;2022-12-11T01:31:12;-0.10;99.90
22145;DHT22;11238;48.730;11.566;2022-12-11T01:33:38;-0.10;99.90
22145;DHT22;11238;48.730;11.566;2022-12-11T01:36:12;-0.10;99.90
22145;DHT22;11238;48.730;11.566;2022-12-11T01:38:39;0.00;99.90
22145;DHT22;11238;48.730;11.566;2022-12-11T01:41:04;0.10;99.90
22145;DHT22;11238;48.730;11.566;2022-12-11T01:43:31;0.10;99.90
22145;DHT22;11238;48.730;11.566;2022-12-11T01:45:57;0.10;99.90
22145;DHT22;11238;48.730;11.566;2022-12-11T01:48:25;0.00;99.90
22145;DHT22;11238;48.730;11.566;2022-12-11T01:51:01;0.00;99.90
22145;DHT22;11238;48.730;11.566;2022-12-11T01:53:32;0.00;99.90
22145;DHT22;11238;48.730;11.566;2022-12-11T01:55:58;0.10;99.90
22145;DHT22;11238;48.730;11.566;2022-12-11T01:58:35;0.10;99.90
22145;DHT22;11238;48.730;11.566;2022-12-11T02:01:03;0.00;99.90
22145;DHT22;11238;48.730;11.566;2022-12-11T02:03:30;0.00;99.90
22145;DHT22;11238;48.730;11.566;2022-12-11T02:06:00;0.10;99.90
22145;DHT22;11238;48.730;11.566;2022-12-11T02:08:26;0.10;99.90
22145;DHT22;11238;48.730;11.566;2022-12-11T02:13:49;0.10;99.90
22145;DHT22;11238;48.730;11.566;2022-12-11T02:16:21;0.10;99.90
22145;DHT22;11238;48.730;11.566;2022-12-11T02:18:54;0.10;99.90
22145;DHT22;11238;48.730;11.566;2022-12-11T02:21:31;0.10;99.90
22145;DHT22;11238;48.730;11.566;2022-12-11T02:29:35;0.10;99.90
22145;DHT22;11238;48.730;11.566;2022-12-11T02:32:11;-0.10;99.90
22145;DHT22;11238;48.730;11.566;2022-12-11T02:37:26;-0.30;99.90
22145;DHT22;11238;48.730;11.566;2022-12-11T02:39:55;-0.40;99.90
22145;DHT22;11238;48.730;11.566;2022-12-11T02:42:24;-0.60;99.90
22145;DHT22;11238;48.730;11.566;2022-12-11T02:44:52;-0.70;99.90
22145;DHT22;11238;48.730;11.566;2022-12-11T02:47:20;-0.70;99.90
22145;DHT22;11238;48.730;11.566;2022-12-11T02:49:48;-0.80;99.90
22145;DHT22;11238;48.730;11.566;2022-12-11T02:52:17;-0.90;99.90
22145;DHT22;11238;48.730;11.566;2022-12-11T02:54:46;-0.90;99.90
22145;DHT22;11238;48.730;11.566;2022-12-11T02:57:33;-1.00;99.90
22145;DHT22;11238;48.730;11.566;2022-12-11T03:00:00;-1.10;99.90
22145;DHT22;11238;48.730;11.566;2022-12-11T03:02:26;-1.10;99.90
22145;DHT22;11238;48.730;11.566;2022-12-11T03:04:53;-1.10;99.90
22145;DHT22;11238;48.730;11.566;2022-12-11T03:07:23;-1.10;99.90
22145;DHT22;11238;48.730;11.566;2022-12-11T03:09:51;-1.10;99.90
22145;DHT22;11238;48.730;11.566;2022-12-11T03:12:23;-1.20;99.90
22145;DHT22;11238;48.730;11.566;2022-12-11T03:14:50;-1.30;99.90
22145;DHT22;11238;48.730;11.566;2022-12-11T03:17:22;-1.30;99.90
22145;DHT22;11238;48.730;11.566;2022-12-11T03:19:59;-1.30;99.90
22145;DHT22;11238;48.730;11.566;2022-12-11T03:22:53;-1.40;99.90
22145;DHT22;11238;48.730;11.566;2022-12-11T03:25:34;-1.40;99.90
22145;DHT22;11238;48.730;11.566;2022-12-11T03:28:33;-1.40;99.90
22145;DHT22;11238;48.730;11.566;2022-12-11T03:31:06;-1.50;99.90
22145;DHT22;11238;48.730;11.566;2022-12-11T03:33:36;-1.50;99.90
22145;DHT22;11238;48.730;11.566;2022-12-11T03:36:06;-1.50;99.90
22145;DHT22;11238;48.730;11.566;2022-12-11T03:38:47;-1.50;99.90
22145;DHT22;11238;48.730;11.566;2022-12-11T03:41:19;-1.60;99.90
22145;DHT22;11238;48.730;11.566;2022-12-11T03:43:48;-1.60;99.90
22145;DHT22;11238;48.730;11.566;2022-12-11T03:46:15;-1.60;99.90
22145;DHT22;11238;48.730;11.566;2022-12-11T03:48:48;-1.60;99.90
22145;DHT22;11238;48.730;11.566;2022-12-11T03:51:16;-1.60;99.90
22145;DHT22;11238;48.730;11.566;2022-12-11T03:53:43;-1.60;99.90
22145;DHT22;11238;48.730;11.566;2022-12-11T03:56:11;-1.60;99.90
22145;DHT22;11238;48.730;11.566;2022-12-11T03:58:38;-1.70;99.90
22145;DHT22;11238;48.730;11.566;2022-12-11T04:01:08;-1.70;99.90
22145;DHT22;11238;48.730;11.566;2022-12-11T04:03:34;-1.70;99.90
22145;DHT22;11238;48.730;11.566;2022-12-11T04:06:00;-1.70;99.90
22145;DHT22;11238;48.730;11.566;2022-12-11T04:08:26;-1.80;99.90
22145;DHT22;11238;48.730;11.566;2022-12-11T04:10:52;-1.80;99.90
22145;DHT22;11238;48.730;11.566;2022-12-11T04:13:39;-1.80;99.90
22145;DHT22;11238;48.730;11.566;2022-12-11T04:16:06;-1.90;99.90
22145;DHT22;11238;48.730;11.566;2022-12-11T04:18:33;-1.90;99.90
22145;DHT22;11238;48.730;11.566;2022-12-11T04:21:18;-1.80;99.90
22145;DHT22;11238;48.730;11.566;2022-12-11T04:24:02;-1.90;99.90
22145;DHT22;11238;48.730;11.566;2022-12-11T04:26:44;-1.80;99.90
22145;DHT22;11238;48.730;11.566;2022-12-11T04:29:10;-1.80;99.90
22145;DHT22;11238;48.730;11.566;2022-12-11T04:31:36;-1.80;99.90
22145;DHT22;11238;48.730;11.566;2022-12-11T04:34:02;-1.80;99.90
22145;DHT22;11238;48.730;11.566;2022-12-11T04:36:28;-1.80;99.90
22145;DHT22;11238;48.730;11.566;2022-12-11T04:38:53;-1.80;99.90
22145;DHT22;11238;48.730;11.566;2022-12-11T04:41:19;-1.80;99.90
22145;DHT22;11238;48.730;11.566;2022-12-11T04:43:45;-1.90;99.90
22145;DHT22;11238;48.730;11.566;2022-12-11T04:46:14;-1.90;99.90
22145;DHT22;11238;48.730;11.566;2022-12-11T04:48:40;-1.90;99.90
22145;DHT22;11238;48.730;11.566;2022-12-11T04:51:07;-1.80;99.90
22145;DHT22;11238;48.730;11.566;2022-12-11T04:53:33;-1.70;99.90
22145;DHT22;11238;48.730;11.566;2022-12-11T04:56:00;-1.70;99.90
22145;DHT22;11238;48.730;11.566;2022-12-11T04:58:26;-1.60;99.90
22145;DHT22;11238;48.730;11.566;2022-12-11T05:00:52;-1.60;99.90
22145;DHT22;11238;48.730;11.566;2022-12-11T05:03:19;-1.60;99.90
22145;DHT22;11238;48.730;11.566;2022-12-11T05:05:49;-1.50;99.90
22145;DHT22;11238;48.730;11.566;2022-12-11T05:08:19;-1.50;99.90
22145;DHT22;11238;48.730;11.566;2022-12-11T05:13:22;-1.40;99.90
22145;DHT22;11238;48.730;11.566;2022-12-11T05:15:47;-1.40;99.90
22145;DHT22;11238;48.730;11.566;2022-12-11T05:18:13;-1.40;99.90
22145;DHT22;11238;48.730;11.566;2022-12-11T05:20:39;-1.50;99.90
22145;DHT22;11238;48.730;11.566;2022-12-11T05:23:04;-1.50;99.90
22145;DHT22;11238;48.730;11.566;2022-12-11T05:25:30;-1.60;99.90
22145;DHT22;11238;48.730;11.566;2022-12-11T05:27:56;-1.50;99.90
22145;DHT22;11238;48.730;11.566;2022-12-11T05:30:22;-1.60;99.90
22145;DHT22;11238;48.730;11.566;2022-12-11T05:32:47;-1.60;99.90
22145;DHT22;11238;48.730;11.566;2022-12-11T05:35:13;-1.50;99.90
22145;DHT22;11238;48.730;11.566;2022-12-11T05:37:39;-1.60;99.90
22145;DHT22;11238;48.730;11.566;2022-12-11T05:40:05;-1.60;99.90
22145;DHT22;11238;48.730;11.566;2022-12-11T05:42:32;-1.60;99.90
22145;DHT22;11238;48.730;11.566;2022-12-11T05:44:58;-1.60;99.90
22145;DHT22;11238;48.730;11.566;2022-12-11T05:47:23;-1.70;99.90
22145;DHT22;11238;48.730;11.566;2022-12-11T05:49:50;-1.70;99.90
22145;DHT22;11238;48.730;11.566;2022-12-11T05:52:16;-1.70;99.90
22145;DHT22;11238;48.730;11.566;2022-12-11T05:54:43;-1.70;99.90
22145;DHT22;11238;48.730;11.566;2022-12-11T05:57:08;-1.70;99.90
22145;DHT22;11238;48.730;11.566;2022-12-11T05:59:34;-1.60;99.90
22145;DHT22;11238;48.730;11.566;2022-12-11T06:02:00;-1.60;99.90
22145;DHT22;11238;48.730;11.566;2022-12-11T06:04:25;-1.60;99.90
22145;DHT22;11238;48.730;11.566;2022-12-11T06:06:55;-1.60;99.90
22145;DHT22;11238;48.730;11.566;2022-12-11T06:09:20;-1.50;99.90
22145;DHT22;11238;48.730;11.566;2022-12-11T06:11:46;-1.50;99.90
22145;DHT22;11238;48.730;11.566;2022-12-11T06:14:12;-1.50;99.90
22145;DHT22;11238;48.730;11.566;2022-12-11T06:16:38;-1.50;99.90
22145;DHT22;11238;48.730;11.566;2022-12-11T06:19:05;-1.40;99.90
22145;DHT22;11238;48.730;11.566;2022-12-11T06:21:32;-1.40;99.90
22145;DHT22;11238;48.730;11.566;2022-12-11T06:24:00;-1.40;99.90
22145;DHT22;11238;48.730;11.566;2022-12-11T06:26:27;-1.30;99.90
22145;DHT22;11238;48.730;11.566;2022-12-11T06:28:53;-1.40;99.90
22145;DHT22;11238;48.730;11.566;2022-12-11T06:31:19;-1.40;99.90
22145;DHT22;11238;48.730;11.566;2022-12-11T06:33:46;-1.40;99.90
22145;DHT22;11238;48.730;11.566;2022-12-11T06:36:17;-1.40;99.90
22145;DHT22;11238;48.730;11.566;2022-12-11T06:38:45;-1.30;99.90
22145;DHT22;11238;48.730;11.566;2022-12-11T06:41:12;-1.40;99.90
22145;DHT22;11238;48.730;11.566;2022-12-11T06:43:39;-1.40;99.90
22145;DHT22;11238;48.730;11.566;2022-12-11T06:46:07;-1.50;99.90
22145;DHT22;11238;48.730;11.566;2022-12-11T06:48:33;-1.60;99.90
22145;DHT22;11238;48.730;11.566;2022-12-11T06:51:04;-1.70;99.90
22145;DHT22;11238;48.730;11.566;2022-12-11T06:53:31;-1.70;99.90
22145;DHT22;11238;48.730;11.566;2022-12-11T06:56:02;-1.80;99.90
22145;DHT22;11238;48.730;11.566;2022-12-11T06:58:28;-1.80;99.90
22145;DHT22;11238;48.730;11.566;2022-12-11T07:00:54;-1.80;99.90
22145;DHT22;11238;48.730;11.566;2022-12-11T07:03:20;-1.80;99.90
22145;DHT22;11238;48.730;11.566;2022-12-11T07:05:45;-1.90;99.90
22145;DHT22;11238;48.730;11.566;2022-12-11T07:08:11;-1.90;99.90
22145;DHT22;11238;48.730;11.566;2022-12-11T07:10:37;-1.90;99.90
22145;DHT22;11238;48.730;11.566;2022-12-11T07:13:03;-2.00;99.90
22145;DHT22;11238;48.730;11.566;2022-12-11T07:15:28;-1.90;99.90
22145;DHT22;11238;48.730;11.566;2022-12-11T07:17:54;-1.90;99.90
22145;DHT22;11238;48.730;11.566;2022-12-11T07:20:20;-1.90;99.90
22145;DHT22;11238;48.730;11.566;2022-12-11T07:22:46;-2.10;99.90
22145;DHT22;11238;48.730;11.566;2022-12-11T07:25:13;-2.10;99.90
22145;DHT22;11238;48.730;11.566;2022-12-11T07:27:39;-2.10;99.90
22145;DHT22;11238;48.730;11.566;2022-12-11T07:30:06;-2.00;99.90
22145;DHT22;11238;48.730;11.566;2022-12-11T07:33:03;-1.90;99.90
22145;DHT22;11238;48.730;11.566;2022-12-11T07:35:54;-1.90;99.90
22145;DHT22;11238;48.730;11.566;2022-12-11T07:38:20;-2.00;99.90
22145;DHT22;11238;48.730;11.566;2022-12-11T07:40:46;-2.10;99.90
22145;DHT22;11238;48.730;11.566;2022-12-11T07:43:12;-2.20;99.90
22145;DHT22;11238;48.730;11.566;2022-12-11T07:45:38;-2.20;99.90
22145;DHT22;11238;48.730;11.566;2022-12-11T07:48:04;-2.20;99.90
22145;DHT22;11238;48.730;11.566;2022-12-11T07:50:30;-2.20;99.90
22145;DHT22;11238;48.730;11.566;2022-12-11T07:52:56;-2.20;99.90
22145;DHT22;11238;48.730;11.566;2022-12-11T07:55:22;-2.20;99.90
22145;DHT22;11238;48.730;11.566;2022-12-11T07:57:48;-2.20;99.90
22145;DHT22;11238;48.730;11.566;2022-12-11T08:00:15;-2.10;99.90
22145;DHT22;11238;48.730;11.566;2022-12-11T08:02:41;-2.10;99.90
22145;DHT22;11238;48.730;11.566;2022-12-11T08:05:08;-2.00;99.90
22145;DHT22;11238;48.730;11.566;2022-12-11T08:07:34;-1.90;99.90
22145;DHT22;11238;48.730;11.566;2022-12-11T08:10:01;-1.90;99.90
22145;DHT22;11238;48.730;11.566;2022-12-11T08:12:27;-1.90;99.90
22145;DHT22;11238;48.730;11.566;2022-12-11T08:14:52;-1.80;99.90
22145;DHT22;11238;48.730;11.566;2022-12-11T08:17:18;-1.80;99.90
22145;DHT22;11238;48.730;11.566;2022-12-11T08:19:44;-1.80;99.90
22145;DHT22;11238;48.730;11.566;2022-12-11T08:22:11;-1.80;99.90
22145;DHT22;11238;48.730;11.566;2022-12-11T08:24:37;-1.70;99.90
22145;DHT22;11238;48.730;11.566;2022-12-11T08:27:06;-1.70;99.90
22145;DHT22;11238;48.730;11.566;2022-12-11T08:29:32;-1.60;99.90
22145;DHT22;11238;48.730;11.566;2022-12-11T08:31:58;-1.60;99.90
22145;DHT22;11238;48.730;11.566;2022-12-11T08:34:24;-1.60;99.90
22145;DHT22;11238;48.730;11.566;2022-12-11T08:36:50;-1.50;99.90
22145;DHT22;11238;48.730;11.566;2022-12-11T08:39:16;-1.50;99.90
22145;DHT22;11238;48.730;11.566;2022-12-11T08:41:42;-1.40;99.90
22145;DHT22;11238;48.730;11.566;2022-12-11T08:44:11;-1.40;99.90
22145;DHT22;11238;48.730;11.566;2022-12-11T08:46:37;-1.40;99.90
22145;DHT22;11238;48.730;11.566;2022-12-11T08:49:03;-1.40;99.90
22145;DHT22;11238;48.730;11.566;2022-12-11T08:51:30;-1.40;99.90
22145;DHT22;11238;48.730;11.566;2022-12-11T08:53:58;-1.40;99.90
22145;DHT22;11238;48.730;11.566;2022-12-11T08:56:26;-1.30;99.90
22145;DHT22;11238;48.730;11.566;2022-12-11T08:58:52;-1.30;99.90
22145;DHT22;11238;48.730;11.566;2022-12-11T09:01:21;-1.20;99.90
22145;DHT22;11238;48.730;11.566;2022-12-11T09:03:48;-1.10;99.90
22145;DHT22;11238;48.730;11.566;2022-12-11T09:06:17;-1.10;99.90
22145;DHT22;11238;48.730;11.566;2022-12-11T09:08:45;-1.00;99.90
22145;DHT22;11238;48.730;11.566;2022-12-11T09:11:17;-1.00;99.90
22145;DHT22;11238;48.730;11.566;2022-12-11T09:13:43;-1.00;99.90
22145;DHT22;11238;48.730;11.566;2022-12-11T09:16:12;-0.90;99.90
22145;DHT22;11238;48.730;11.566;2022-12-11T09:18:38;-0.90;99.90
22145;DHT22;11238;48.730;11.566;2022-12-11T09:21:08;-0.90;99.90
22145;DHT22;11238;48.730;11.566;2022-12-11T09:23:34;-0.90;99.90
22145;DHT22;11238;48.730;11.566;2022-12-11T09:26:06;-0.80;99.90
22145;DHT22;11238;48.730;11.566;2022-12-11T09:28:33;-1.00;99.90
22145;DHT22;11238;48.730;11.566;2022-12-11T09:30:59;-1.10;99.90
22145;DHT22;11238;48.730;11.566;2022-12-11T09:33:25;-1.20;99.90
22145;DHT22;11238;48.730;11.566;2022-12-11T09:36:00;-1.30;99.90
22145;DHT22;11238;48.730;11.566;2022-12-11T09:38:27;-1.30;99.90
22145;DHT22;11238;48.730;11.566;2022-12-11T09:40:54;-1.40;99.90
22145;DHT22;11238;48.730;11.566;2022-12-11T09:43:39;-1.40;99.90
22145;DHT22;11238;48.730;11.566;2022-12-11T09:46:10;-1.40;99.90
22145;DHT22;11238;48.730;11.566;2022-12-11T09:48:39;-1.30;99.90
22145;DHT22;11238;48.730;11.566;2022-12-11T09:53:51;-1.20;99.90
22145;DHT22;11238;48.730;11.566;2022-12-11T09:56:54;-1.10;99.90
22145;DHT22;11238;48.730;11.566;2022-12-11T10:02:15;-1.00;99.90
22145;DHT22;11238;48.730;11.566;2022-12-11T10:05:21;-0.90;99.90
22145;DHT22;11238;48.730;11.566;2022-12-11T10:08:13;-0.90;99.90
22145;DHT22;11238;48.730;11.566;2022-12-11T10:10:51;-0.80;99.90
22145;DHT22;11238;48.730;11.566;2022-12-11T10:13:37;-0.90;99.90
22145;DHT22;11238;48.730;11.566;2022-12-11T10:19:19;-0.70;99.90
22145;DHT22;11238;48.730;11.566;2022-12-11T10:21:48;-0.60;99.90
22145;DHT22;11238;48.730;11.566;2022-12-11T10:24:36;-0.30;99.90
22145;DHT22;11238;48.730;11.566;2022-12-11T10:27:16;0.30;99.90
22145;DHT22;11238;48.730;11.566;2022-12-11T10:29:45;0.80;99.90
22145;DHT22;11238;48.730;11.566;2022-12-11T10:32:23;1.00;99.90
22145;DHT22;11238;48.730;11.566;2022-12-11T10:34:59;1.00;99.90
22145;DHT22;11238;48.730;11.566;2022-12-11T10:37:26;1.00;99.90
22145;DHT22;11238;48.730;11.566;2022-12-11T10:39:52;0.60;99.90
22145;DHT22;11238;48.730;11.566;2022-12-11T10:42:21;0.20;99.90
22145;DHT22;11238;48.730;11.566;2022-12-11T10:44:55;-0.10;99.90
22145;DHT22;11238;48.730;11.566;2022-12-11T10:47:44;0.00;99.90
22145;DHT22;11238;48.730;11.566;2022-12-11T10:50:25;-0.30;99.90
22145;DHT22;11238;48.730;11.566;2022-12-11T10:52:51;-0.10;99.90
22145;DHT22;11238;48.730;11.566;2022-12-11T10:55:24;0.00;99.90
22145;DHT22;11238;48.730;11.566;2022-12-11T10:58:00;0.00;99.90
22145;DHT22;11238;48.730;11.566;2022-12-11T11:02:54;-0.10;99.90
22145;DHT22;11238;48.730;11.566;2022-12-11T11:05:46;-0.10;99.90
22145;DHT22;11238;48.730;11.566;2022-12-11T11:08:20;0.00;99.90
22145;DHT22;11238;48.730;11.566;2022-12-11T11:10:54;-0.10;99.90
22145;DHT22;11238;48.730;11.566;2022-12-11T11:13:27;-0.30;99.90
22145;DHT22;11238;48.730;11.566;2022-12-11T11:16:07;-0.60;99.90
22145;DHT22;11238;48.730;11.566;2022-12-11T11:18:39;-0.60;99.90
22145;DHT22;11238;48.730;11.566;2022-12-11T11:21:05;-0.70;99.90
22145;DHT22;11238;48.730;11.566;2022-12-11T11:23:33;-0.70;99.90
22145;DHT22;11238;48.730;11.566;2022-12-11T11:26:01;-0.80;99.90
22145;DHT22;11238;48.730;11.566;2022-12-11T11:28:36;-0.80;99.90
22145;DHT22;11238;48.730;11.566;2022-12-11T11:31:05;-1.00;99.90
22145;DHT22;11238;48.730;11.566;2022-12-11T11:33:34;-0.90;99.90
22145;DHT22;11238;48.730;11.566;2022-12-11T11:36:06;-0.80;99.90
22145;DHT22;11238;48.730;11.566;2022-12-11T11:41:43;-0.70;99.90
22145;DHT22;11238;48.730;11.566;2022-12-11T11:44:14;-0.70;99.90
22145;DHT22;11238;48.730;11.566;2022-12-11T11:46:48;-0.60;99.90
22145;DHT22;11238;48.730;11.566;2022-12-11T11:49:19;-0.60;99.90
22145;DHT22;11238;48.730;11.566;2022-12-11T11:54:57;-0.70;99.90
22145;DHT22;11238;48.730;11.566;2022-12-11T12:00:06;-0.60;99.90
22145;DHT22;11238;48.730;11.566;2022-12-11T12:02:39;-0.40;99.90
22145;DHT22;11238;48.730;11.566;2022-12-11T12:05:12;-0.20;99.90
22145;DHT22;11238;48.730;11.566;2022-12-11T12:10:20;-0.10;99.90
22145;DHT22;11238;48.730;11.566;2022-12-11T12:13:12;0.00;99.90
22145;DHT22;11238;48.730;11.566;2022-12-11T12:15:47;0.10;99.90
22145;DHT22;11238;48.730;11.566;2022-12-11T12:21:08;0.30;99.90
22145;DHT22;11238;48.730;11.566;2022-12-11T12:29:07;0.30;99.90
22145;DHT22;11238;48.730;11.566;2022-12-11T12:31:57;0.20;99.90
22145;DHT22;11238;48.730;11.566;2022-12-11T12:34:46;0.10;99.90
22145;DHT22;11238;48.730;11.566;2022-12-11T12:43:03;-0.30;99.90
22145;DHT22;11238;48.730;11.566;2022-12-11T12:48:08;-0.20;99.90
22145;DHT22;11238;48.730;11.566;2022-12-11T12:50:45;-0.20;99.90
22145;DHT22;11238;48.730;11.566;2022-12-11T12:53:25;-0.20;99.90
22145;DHT22;11238;48.730;11.566;2022-12-11T12:55:53;-0.20;99.90
22145;DHT22;11238;48.730;11.566;2022-12-11T12:58:42;-0.20;99.90
22145;DHT22;11238;48.730;11.566;2022-12-11T13:04:05;-0.10;99.90
22145;DHT22;11238;48.730;11.566;2022-12-11T13:06:37;-0.10;99.90
22145;DHT22;11238;48.730;11.566;2022-12-11T13:11:46;-0.10;99.90
22145;DHT22;11238;48.730;11.566;2022-12-11T13:16:42;0.10;99.90
22145;DHT22;11238;48.730;11.566;2022-12-11T13:22:45;0.10;99.90
22145;DHT22;11238;48.730;11.566;2022-12-11T13:29:48;0.10;99.90
22145;DHT22;11238;48.730;11.566;2022-12-11T13:34:54;0.10;99.90
22145;DHT22;11238;48.730;11.566;2022-12-11T13:37:30;0.10;99.90
22145;DHT22;11238;48.730;11.566;2022-12-11T13:40:00;0.10;99.90
22145;DHT22;11238;48.730;11.566;2022-12-11T13:42:35;0.10;99.90
22145;DHT22;11238;48.730;11.566;2022-12-11T13:45:02;0.10;99.90
22145;DHT22;11238;48.730;11.566;2022-12-11T13:47:30;0.10;99.90
22145;DHT22;11238;48.730;11.566;2022-12-11T13:50:31;-0.20;99.90
22145;DHT22;11238;48.730;11.566;2022-12-11T13:53:01;-0.10;99.90
22145;DHT22;11238;48.730;11.566;2022-12-11T13:55:33;-0.10;99.90
22145;DHT22;11238;48.730;11.566;2022-12-11T13:57:59;-0.10;99.90
22145;DHT22;11238;48.730;11.566;2022-12-11T14:00:28;-0.10;99.90
22145;DHT22;11238;48.730;11.566;2022-12-11T14:03:02;-0.10;99.90
22145;DHT22;11238;48.730;11.566;2022-12-11T14:05:30;-0.10;99.90
22145;DHT22;11238;48.730;11.566;2022-12-11T14:07:58;-0.10;99.90
22145;DHT22;11238;48.730;11.566;2022-12-11T14:10:28;-0.10;99.90
22145;DHT22;11238;48.730;11.566;2022-12-11T14:13:36;-0.10;99.90
22145;DHT22;11238;48.730;11.566;2022-12-11T14:16:05;-0.10;99.90
22145;DHT22;11238;48.730;11.566;2022-12-11T14:18:32;-0.20;99.90
22145;DHT22;11238;48.730;11.566;2022-12-11T14:21:04;-0.30;99.90
22145;DHT22;11238;48.730;11.566;2022-12-11T14:23:32;-0.40;99.90
22145;DHT22;11238;48.730;11.566;2022-12-11T14:26:10;-0.50;99.90
22145;DHT22;11238;48.730;11.566;2022-12-11T14:28:41;-0.70;99.90
22145;DHT22;11238;48.730;11.566;2022-12-11T14:31:07;-0.80;99.90
22145;DHT22;11238;48.730;11.566;2022-12-11T14:33:37;-0.90;99.90
22145;DHT22;11238;48.730;11.566;2022-12-11T14:36:03;-0.90;99.90
22145;DHT22;11238;48.730;11.566;2022-12-11T14:38:37;-1.00;99.90
22145;DHT22;11238;48.730;11.566;2022-12-11T14:41:20;-0.90;99.90
22145;DHT22;11238;48.730;11.566;2022-12-11T14:43:56;-0.90;99.90
22145;DHT22;11238;48.730;11.566;2022-12-11T14:46:39;-0.90;99.90
22145;DHT22;11238;48.730;11.566;2022-12-11T14:49:21;-0.80;99.90
22145;DHT22;11238;48.730;11.566;2022-12-11T14:51:51;-0.80;99.90
22145;DHT22;11238;48.730;11.566;2022-12-11T14:54:31;-0.80;99.90
22145;DHT22;11238;48.730;11.566;2022-12-11T14:56:58;-0.80;99.90
22145;DHT22;11238;48.730;11.566;2022-12-11T14:59:25;-0.90;99.90
22145;DHT22;11238;48.730;11.566;2022-12-11T15:02:02;-1.00;99.90
22145;DHT22;11238;48.730;11.566;2022-12-11T15:04:30;-1.00;99.90
22145;DHT22;11238;48.730;11.566;2022-12-11T15:06:57;-1.00;99.90
22145;DHT22;11238;48.730;11.566;2022-12-11T15:09:27;-1.00;99.90
22145;DHT22;11238;48.730;11.566;2022-12-11T15:11:56;-1.00;99.90
22145;DHT22;11238;48.730;11.566;2022-12-11T15:14:25;-1.00;99.90
22145;DHT22;11238;48.730;11.566;2022-12-11T15:16:53;-1.00;99.90
22145;DHT22;11238;48.730;11.566;2022-12-11T15:19:28;-1.00;99.90
22145;DHT22;11238;48.730;11.566;2022-12-11T15:22:03;-1.10;99.90
22145;DHT22;11238;48.730;11.566;2022-12-11T15:24:36;-1.10;99.90
22145;DHT22;11238;48.730;11.566;2022-12-11T15:27:04;-1.00;99.90
22145;DHT22;11238;48.730;11.566;2022-12-11T15:29:38;-1.00;99.90
22145;DHT22;11238;48.730;11.566;2022-12-11T15:37:31;-1.00;99.90
22145;DHT22;11238;48.730;11.566;2022-12-11T15:39:59;-1.00;99.90
22145;DHT22;11238;48.730;11.566;2022-12-11T15:42:32;-1.00;99.90
22145;DHT22;11238;48.730;11.566;2022-12-11T15:44:59;-1.00;99.90
22145;DHT22;11238;48.730;11.566;2022-12-11T15:47:28;-1.10;99.90
22145;DHT22;11238;48.730;11.566;2022-12-11T15:49:58;-1.30;99.90
22145;DHT22;11238;48.730;11.566;2022-12-11T15:52:24;-1.30;99.90
22145;DHT22;11238;48.730;11.566;2022-12-11T15:54:50;-1.30;99.90
22145;DHT22;11238;48.730;11.566;2022-12-11T15:57:20;-1.30;99.90
22145;DHT22;11238;48.730;11.566;2022-12-11T15:59:48;-1.40;99.90
22145;DHT22;11238;48.730;11.566;2022-12-11T16:02:15;-1.50;99.90
22145;DHT22;11238;48.730;11.566;2022-12-11T16:04:41;-1.50;99.90
22145;DHT22;11238;48.730;11.566;2022-12-11T16:07:24;-1.50;99.90
22145;DHT22;11238;48.730;11.566;2022-12-11T16:09:51;-1.60;99.90
22145;DHT22;11238;48.730;11.566;2022-12-11T16:12:17;-1.60;99.90
22145;DHT22;11238;48.730;11.566;2022-12-11T16:14:44;-1.60;99.90
22145;DHT22;11238;48.730;11.566;2022-12-11T16:17:13;-1.70;99.90
22145;DHT22;11238;48.730;11.566;2022-12-11T16:19:40;-1.70;99.90
22145;DHT22;11238;48.730;11.566;2022-12-11T16:22:07;-1.70;99.90
22145;DHT22;11238;48.730;11.566;2022-12-11T16:24:33;-1.70;99.90
22145;DHT22;11238;48.730;11.566;2022-12-11T16:27:00;-1.70;99.90
22145;DHT22;11238;48.730;11.566;2022-12-11T16:29:26;-1.70;99.90
22145;DHT22;11238;48.730;11.566;2022-12-11T16:31:52;-1.70;99.90
22145;DHT22;11238;48.730;11.566;2022-12-11T16:34:18;-1.80;99.90
22145;DHT22;11238;48.730;11.566;2022-12-11T16:36:43;-1.80;99.90
22145;DHT22;11238;48.730;11.566;2022-12-11T16:39:10;-1.80;99.90
22145;DHT22;11238;48.730;11.566;2022-12-11T16:41:37;-1.80;99.90
22145;DHT22;11238;48.730;11.566;2022-12-11T16:44:03;-1.80;99.90
22145;DHT22;11238;48.730;11.566;2022-12-11T16:46:29;-1.80;99.90
22145;DHT22;11238;48.730;11.566;2022-12-11T16:48:55;-1.70;99.90
22145;DHT22;11238;48.730;11.566;2022-12-11T16:51:21;-1.70;99.90